Time;durP1;ratioP1;P1;durP2;ratioP2;P2;SDS_P1;SDS_P2;PMS_P1;PMS_P2;Temp;Humidity;BMP_temperature;BMP_pressure;BME280_temperature;BME280_humidity;BME280_pressure;Samples;Min_cycle;Max_cycle;Signal;HPM_P1;HPM_P2
2022/05/17 00:00:28;;;;;;;;;;;;;;;-142.75;100.00;77056.53;5028731;28;20025;-73
2022/05/17 00:02:53;;;;;;;;;;;;;;;-142.75;100.00;77050.63;5028686;28;19916;-74
2022/05/17 00:05:19;;;;;;;;;;;;;;;-142.75;100.00;77050.63;5029697;28;19924;-72
2022/05/17 00:07:44;;;;;;;;;;;;;;;-142.75;100.00;77052.59;5029648;28;19913;-73
2022/05/17 00:10:09;;;;;;;;;;;;;;;-142.75;100.00;77056.53;5030273;28;20015;-74
2022/05/17 00:12:35;;;;;;;;;;;;;;;-142.75;100.00;77048.66;5029908;28;19913;-73
2022/05/17 00:15:00;;;;;;;;;;;;;;;-142.75;100.00;77046.69;5029662;28;20565;-73
2022/05/17 00:17:26;;;;;;;;;;;;;;;-142.75;100.00;77038.81;5028528;28;19966;-73
2022/05/17 00:19:51;;;;;;;;;;;;;;;-142.75;100.00;77038.81;5029413;28;20382;-74
2022/05/17 00:22:16;;;;;;;;;;;;;;;-142.75;100.00;77040.78;5029708;28;19995;-74
2022/05/17 00:24:42;;;;;;;;;;;;;;;-142.75;100.00;77040.78;5029539;28;19920;-73
2022/05/17 00:27:08;;;;;;;;;;;;;;;-142.75;100.00;77042.75;5029734;28;19960;-73
2022/05/17 00:29:33;;;;;;;;;;;;;;;-142.75;100.00;77040.78;5029216;28;19913;-74
2022/05/17 00:31:58;;;;;;;;;;;;;;;-142.75;100.00;77040.78;5029681;28;20011;-73
2022/05/17 00:34:24;;;;;;;;;;;;;;;-142.75;100.00;77028.97;5029528;28;20285;-73
2022/05/17 00:36:49;;;;;;;;;;;;;;;-142.75;100.00;77036.84;5029572;28;19916;-73
2022/05/17 00:39:15;;;;;;;;;;;;;;;-142.75;100.00;77034.88;5029227;28;20366;-73
2022/05/17 00:41:40;;;;;;;;;;;;;;;-142.75;100.00;77042.75;5030143;28;20344;-73
2022/05/17 00:46:52;;;;;;;;;;;;;;;-142.75;100.00;77054.56;5029618;28;20413;-73
2022/05/17 00:49:30;;;;;;;;;;;;;;;-142.75;100.00;77054.56;5027525;28;19913;-73
2022/05/17 00:51:57;;;;;;;;;;;;;;;-142.75;100.00;77046.69;5028185;28;20000;-73
2022/05/17 00:54:23;;;;;;;;;;;;;;;-142.75;100.00;77056.53;5031135;28;19916;-73
2022/05/17 00:56:52;;;;;;;;;;;;;;;-142.75;100.00;77066.38;5029354;28;19975;-73
2022/05/17 00:59:17;;;;;;;;;;;;;;;-142.75;100.00;77064.41;5030764;28;19967;-73
2022/05/17 01:01:43;;;;;;;;;;;;;;;-142.75;100.00;77062.44;5032225;28;20345;-73
2022/05/17 01:04:10;;;;;;;;;;;;;;;-142.75;100.00;77064.41;5033078;28;20341;-72
2022/05/17 01:06:38;;;;;;;;;;;;;;;-142.75;100.00;77064.41;5033107;28;20409;-73
2022/05/17 01:09:03;;;;;;;;;;;;;;;-142.75;100.00;77068.34;5031193;28;19920;-72
2022/05/17 01:11:29;;;;;;;;;;;;;;;-142.75;100.00;77074.25;5033980;28;19921;-73
2022/05/17 01:16:38;;;;;;;;;;;;;;;-142.75;100.00;77070.31;5032928;28;19923;-73
2022/05/17 01:19:04;;;;;;;;;;;;;;;-142.75;100.00;77074.25;5031112;28;20016;-73
2022/05/17 01:21:32;;;;;;;;;;;;;;;-142.75;100.00;77072.28;5032857;28;20426;-73
2022/05/17 01:23:57;;;;;;;;;;;;;;;-142.75;100.00;77074.25;5032869;28;20000;-73
2022/05/17 01:26:25;;;;;;;;;;;;;;;-142.75;100.00;77080.16;5032581;28;19975;-72
2022/05/17 01:28:50;;;;;;;;;;;;;;;-142.75;100.00;77076.22;5032186;28;19919;-73
2022/05/17 01:31:16;;;;;;;;;;;;;;;-142.75;100.00;77080.16;5032749;28;19920;-73
2022/05/17 01:33:41;;;;;;;;;;;;;;;-142.75;100.00;77084.09;5032842;28;19975;-72
2022/05/17 01:36:08;;;;;;;;;;;;;;;-142.75;100.00;77082.13;5033683;28;20432;-72
2022/05/17 01:38:34;;;;;;;;;;;;;;;-142.75;100.00;77090.00;5032240;28;19916;-73
2022/05/17 01:40:59;;;;;;;;;;;;;;;-142.75;100.00;77093.94;5033121;28;19939;-73
2022/05/17 01:43:24;;;;;;;;;;;;;;;-142.75;100.00;77086.06;5031327;28;19920;-72
2022/05/17 01:45:50;;;;;;;;;;;;;;;-142.75;100.00;77082.13;5032345;28;20390;-70
2022/05/17 01:48:15;;;;;;;;;;;;;;;-142.75;100.00;77078.19;5032141;28;19920;-72
2022/05/17 01:50:40;;;;;;;;;;;;;;;-142.75;100.00;77078.19;5031810;28;19917;-71
2022/05/17 01:53:06;;;;;;;;;;;;;;;-142.75;100.00;77074.25;5032259;28;19999;-72
2022/05/17 01:55:31;;;;;;;;;;;;;;;-142.75;100.00;77078.19;5030351;28;20025;-72
2022/05/17 01:57:57;;;;;;;;;;;;;;;-142.75;100.00;77078.19;5032126;28;20405;-72
2022/05/17 02:00:23;;;;;;;;;;;;;;;-142.75;100.00;77076.22;5030452;28;19948;-72
2022/05/17 02:02:48;;;;;;;;;;;;;;;-142.75;100.00;77084.09;5032264;28;19920;-72
2022/05/17 02:05:13;;;;;;;;;;;;;;;-142.75;100.00;77086.06;5030699;28;19913;-72
2022/05/17 02:07:38;;;;;;;;;;;;;;;-142.75;100.00;77082.13;5030617;28;19970;-72
2022/05/17 02:10:04;;;;;;;;;;;;;;;-142.75;100.00;77082.13;5031823;28;19913;-72
2022/05/17 02:12:29;;;;;;;;;;;;;;;-142.75;100.00;77095.91;5032135;28;19924;-72
2022/05/17 02:14:54;;;;;;;;;;;;;;;-142.75;100.00;77091.97;5030576;28;19913;-72
2022/05/17 02:17:20;;;;;;;;;;;;;;;-142.75;100.00;77101.81;5032043;28;19984;-72
2022/05/17 02:19:45;;;;;;;;;;;;;;;-142.75;100.00;77105.75;5031241;28;19920;-71
2022/05/17 02:22:11;;;;;;;;;;;;;;;-142.75;100.00;77107.72;5031718;28;19917;-72
2022/05/17 02:24:36;;;;;;;;;;;;;;;-142.75;100.00;77105.75;5031694;28;20003;-72
2022/05/17 02:27:02;;;;;;;;;;;;;;;-142.75;100.00;77107.72;5031602;28;19978;-72
2022/05/17 02:29:29;;;;;;;;;;;;;;;-142.75;100.00;77101.81;5031037;28;19913;-71
2022/05/17 02:31:54;;;;;;;;;;;;;;;-142.75;100.00;77101.81;5031516;28;19917;-72
2022/05/17 02:34:19;;;;;;;;;;;;;;;-142.75;100.00;77101.81;5031556;28;19927;-72
2022/05/17 02:36:44;;;;;;;;;;;;;;;-142.75;100.00;77095.91;5031267;28;20302;-72
2022/05/17 02:39:10;;;;;;;;;;;;;;;-142.75;100.00;77082.13;5029974;28;19920;-72
2022/05/17 02:41:35;;;;;;;;;;;;;;;-142.75;100.00;77088.03;5030985;28;19967;-72
2022/05/17 02:44:01;;;;;;;;;;;;;;;-142.75;100.00;77088.03;5031146;28;19931;-72
2022/05/17 02:46:28;;;;;;;;;;;;;;;-142.75;100.00;77091.97;5031059;28;19968;-72
2022/05/17 02:48:53;;;;;;;;;;;;;;;-142.75;100.00;77097.88;5030758;28;19920;-72
2022/05/17 02:51:19;;;;;;;;;;;;;;;-142.75;100.00;77090.00;5031130;28;20378;-72
2022/05/17 02:53:45;;;;;;;;;;;;;;;-142.75;100.00;77088.03;5032246;28;19964;-71
2022/05/17 02:56:10;;;;;;;;;;;;;;;-142.75;100.00;77095.91;5032035;28;20374;-72
2022/05/17 02:58:35;;;;;;;;;;;;;;;-142.75;100.00;77097.88;5031285;28;20379;-72
2022/05/17 03:01:01;;;;;;;;;;;;;;;-142.75;100.00;77095.91;5030409;28;19967;-72
2022/05/17 03:03:26;;;;;;;;;;;;;;;-142.75;100.00;77091.97;5029972;28;19920;-72
2022/05/17 03:05:52;;;;;;;;;;;;;;;-142.75;100.00;77086.06;5029736;28;19920;-70
2022/05/17 03:08:17;;;;;;;;;;;;;;;-142.75;100.00;77088.03;5030741;28;19913;-72
2022/05/17 03:10:42;;;;;;;;;;;;;;;-142.75;100.00;77091.97;5031501;28;19913;-71
2022/05/17 03:13:11;;;;;;;;;;;;;;;-142.75;100.00;77090.00;5029772;28;19967;-72
2022/05/17 03:15:37;;;;;;;;;;;;;;;-142.75;100.00;77093.94;5031190;28;19919;-72
2022/05/17 03:18:02;;;;;;;;;;;;;;;-142.75;100.00;77090.00;5029366;28;19913;-72
2022/05/17 03:20:27;;;;;;;;;;;;;;;-142.75;100.00;77090.00;5030706;28;19940;-72
2022/05/17 03:22:52;;;;;;;;;;;;;;;-142.75;100.00;77090.00;5030280;28;19913;-71
2022/05/17 03:25:18;;;;;;;;;;;;;;;-142.75;100.00;77091.97;5030711;28;19912;-72
2022/05/17 03:27:43;;;;;;;;;;;;;;;-142.75;100.00;77090.00;5030129;28;19912;-71
2022/05/17 03:30:08;;;;;;;;;;;;;;;-142.75;100.00;77097.88;5030410;28;20011;-72
2022/05/17 03:32:34;;;;;;;;;;;;;;;-142.75;100.00;77097.88;5030661;28;19917;-72
2022/05/17 03:34:59;;;;;;;;;;;;;;;-142.75;100.00;77095.91;5029253;28;19979;-72
2022/05/17 03:37:24;;;;;;;;;;;;;;;-142.75;100.00;77091.97;5030339;28;19924;-71
2022/05/17 03:39:51;;;;;;;;;;;;;;;-142.75;100.00;77088.03;5029990;28;19925;-72
2022/05/17 03:42:17;;;;;;;;;;;;;;;-142.75;100.00;77086.06;5029872;28;19912;-72
2022/05/17 03:44:42;;;;;;;;;;;;;;;-142.75;100.00;77086.06;5028897;28;20371;-71
2022/05/17 03:47:08;;;;;;;;;;;;;;;-142.75;100.00;77084.09;5030350;28;19951;-72
2022/05/17 03:49:34;;;;;;;;;;;;;;;-142.75;100.00;77091.97;5030264;28;20385;-72
2022/05/17 03:52:00;;;;;;;;;;;;;;;-142.75;100.00;77093.94;5030128;28;19925;-72
2022/05/17 03:54:25;;;;;;;;;;;;;;;-142.75;100.00;77095.91;5028767;28;19920;-71
2022/05/17 03:56:51;;;;;;;;;;;;;;;-142.75;100.00;77084.09;5030080;28;19924;-70
2022/05/17 03:59:16;;;;;;;;;;;;;;;-142.75;100.00;77086.06;5028400;28;19913;-72
2022/05/17 04:01:41;;;;;;;;;;;;;;;-142.75;100.00;77082.13;5030030;28;19921;-71
2022/05/17 04:04:06;;;;;;;;;;;;;;;-142.75;100.00;77082.13;5030000;28;19959;-72
2022/05/17 04:06:31;;;;;;;;;;;;;;;-142.75;100.00;77078.19;5030596;28;20370;-72
2022/05/17 04:08:57;;;;;;;;;;;;;;;-142.75;100.00;77074.25;5029556;28;19921;-72
2022/05/17 04:11:22;;;;;;;;;;;;;;;-142.75;100.00;77072.28;5031373;28;19970;-72
2022/05/17 04:13:47;;;;;;;;;;;;;;;-142.75;100.00;77068.34;5031640;28;20348;-72
2022/05/17 04:16:12;;;;;;;;;;;;;;;-142.75;100.00;77058.50;5030351;28;19941;-71
2022/05/17 04:18:38;;;;;;;;;;;;;;;-142.75;100.00;77068.34;5031350;28;19913;-72
2022/05/17 04:21:03;;;;;;;;;;;;;;;-142.75;100.00;77066.38;5031619;28;19917;-72
2022/05/17 04:23:29;;;;;;;;;;;;;;;-142.75;100.00;77064.41;5031810;28;20341;-72
2022/05/17 04:25:54;;;;;;;;;;;;;;;-142.75;100.00;77062.44;5032074;28;19917;-72
2022/05/17 04:28:20;;;;;;;;;;;;;;;-142.75;100.00;77058.50;5030061;28;19913;-73
2022/05/17 04:30:45;;;;;;;;;;;;;;;-142.75;100.00;77056.53;5031347;28;19913;-72
2022/05/17 04:33:10;;;;;;;;;;;;;;;-142.75;100.00;77058.50;5031118;28;20370;-72
2022/05/17 04:35:35;;;;;;;;;;;;;;;-142.75;100.00;77054.56;5032435;28;19913;-72
2022/05/17 04:38:01;;;;;;;;;;;;;;;-142.75;100.00;77054.56;5034866;28;20003;-72
2022/05/17 04:40:27;;;;;;;;;;;;;;;-142.75;100.00;77058.50;5035031;28;20008;-71
2022/05/17 04:42:56;;;;;;;;;;;;;;;-142.75;100.00;77058.50;5034942;28;20341;-70
2022/05/17 04:45:22;;;;;;;;;;;;;;;-142.75;100.00;77054.56;5035000;28;19919;-72
2022/05/17 04:47:47;;;;;;;;;;;;;;;-142.75;100.00;77050.63;5034764;28;19913;-71
2022/05/17 04:50:13;;;;;;;;;;;;;;;-142.75;100.00;77052.59;5034524;28;19959;-73
2022/05/17 04:52:38;;;;;;;;;;;;;;;-142.75;100.00;77050.63;5033558;28;19917;-72
2022/05/17 04:55:04;;;;;;;;;;;;;;;-142.75;100.00;77054.56;5034738;28;19949;-72
2022/05/17 04:57:29;;;;;;;;;;;;;;;-142.75;100.00;77056.53;5033418;28;20279;-71
2022/05/17 04:59:54;;;;;;;;;;;;;;;-142.75;100.00;77062.44;5034100;28;19920;-71
2022/05/17 05:02:19;;;;;;;;;;;;;;;-142.75;100.00;77062.44;5033236;28;20010;-72
2022/05/17 05:04:45;;;;;;;;;;;;;;;-142.75;100.00;77064.41;5034359;28;19919;-72
2022/05/17 05:07:10;;;;;;;;;;;;;;;-142.75;100.00;77066.38;5033229;28;19924;-72
2022/05/17 05:09:35;;;;;;;;;;;;;;;-142.75;100.00;77066.38;5032696;28;19920;-72
2022/05/17 05:12:00;;;;;;;;;;;;;;;-142.75;100.00;77064.41;5033117;28;19932;-72
2022/05/17 05:14:26;;;;;;;;;;;;;;;-142.75;100.00;77066.38;5034251;28;19931;-72
2022/05/17 05:16:51;;;;;;;;;;;;;;;-142.75;100.00;77062.44;5034420;28;19920;-72
2022/05/17 05:19:17;;;;;;;;;;;;;;;-142.75;100.00;77062.44;5033818;28;19953;-72
2022/05/17 05:21:42;;;;;;;;;;;;;;;-142.75;100.00;77054.56;5032854;28;20466;-71
2022/05/17 05:24:10;;;;;;;;;;;;;;;-142.75;100.00;77056.53;5034069;28;19920;-72
2022/05/17 05:26:36;;;;;;;;;;;;;;;-142.75;100.00;77054.56;5034127;28;20286;-72
2022/05/17 05:29:01;;;;;;;;;;;;;;;-142.75;100.00;77046.69;5033666;28;19919;-71
2022/05/17 05:31:27;;;;;;;;;;;;;;;-142.75;100.00;77048.66;5034092;28;19917;-72
2022/05/17 05:33:52;;;;;;;;;;;;;;;-142.75;100.00;77044.72;5033959;28;19913;-72
2022/05/17 05:36:18;;;;;;;;;;;;;;;-142.75;100.00;77046.69;5033862;28;19920;-72
2022/05/17 05:38:43;;;;;;;;;;;;;;;-142.75;100.00;77042.75;5033613;28;19913;-72
2022/05/17 05:41:12;;;;;;;;;;;;;;;-142.75;100.00;77042.75;5032376;28;20367;-72
2022/05/17 05:43:37;;;;;;;;;;;;;;;-142.75;100.00;77042.75;5033753;28;19913;-72
2022/05/17 05:46:02;;;;;;;;;;;;;;;-142.75;100.00;77042.75;5033034;28;19920;-71
2022/05/17 05:48:28;;;;;;;;;;;;;;;-142.75;100.00;77062.44;5032148;28;19913;-72
2022/05/17 05:50:53;;;;;;;;;;;;;;;-142.75;100.00;77066.38;5054356;22;19921;-68
2022/05/17 05:53:19;;;;;;;;;;;;;;;-142.75;100.00;77078.19;5032249;28;19921;-69
2022/05/17 05:55:44;;;;;;;;;;;;;;;-142.75;100.00;77086.06;5033033;28;20362;-69
2022/05/17 05:58:10;;;;;;;;;;;;;;;-142.75;100.00;77086.06;5033166;28;19920;-69
2022/05/17 06:00:36;;;;;;;;;;;;;;;-142.75;100.00;77093.94;5033248;28;19924;-69
2022/05/17 06:03:01;;;;;;;;;;;;;;;-142.75;100.00;77097.88;5033256;28;20382;-69
2022/05/17 06:05:27;;;;;;;;;;;;;;;-142.75;100.00;77090.00;5033239;28;19952;-69
2022/05/17 06:07:52;;;;;;;;;;;;;;;-142.75;100.00;77090.00;5032883;28;20424;-67
2022/05/17 06:10:18;;;;;;;;;;;;;;;-142.75;100.00;77090.00;5032915;28;19959;-69
2022/05/17 06:12:43;;;;;;;;;;;;;;;-142.75;100.00;77084.09;5033192;28;20347;-69
2022/05/17 06:15:09;;;;;;;;;;;;;;;-142.75;100.00;77086.06;5031808;28;20300;-69
2022/05/17 06:17:35;;;;;;;;;;;;;;;-142.75;100.00;77091.97;5032964;28;20004;-69
2022/05/17 06:20:01;;;;;;;;;;;;;;;-142.75;100.00;77088.03;5032665;28;19912;-69
2022/05/17 06:22:26;;;;;;;;;;;;;;;-142.75;100.00;77082.13;5032958;28;20432;-69
2022/05/17 06:24:52;;;;;;;;;;;;;;;-142.75;100.00;77084.09;5032870;28;19912;-69
2022/05/17 06:27:17;;;;;;;;;;;;;;;-142.75;100.00;77082.13;5032723;28;19921;-69
2022/05/17 06:29:42;;;;;;;;;;;;;;;-142.75;100.00;77064.41;5030997;28;19924;-69
2022/05/17 06:32:12;;;;;;;;;;;;;;;-142.75;100.00;77066.38;5027924;28;19913;-69
2022/05/17 06:34:38;;;;;;;;;;;;;;;-142.75;100.00;77072.28;5027037;28;19913;-69
2022/05/17 06:37:04;;;;;;;;;;;;;;;-142.75;100.00;77070.31;5029480;28;19920;-69
2022/05/17 06:39:29;;;;;;;;;;;;;;;-142.75;100.00;77078.19;5032227;28;19913;-69
2022/05/17 06:41:55;;;;;;;;;;;;;;;-142.75;100.00;77072.28;5032546;28;19936;-69
2022/05/17 06:44:20;;;;;;;;;;;;;;;-142.75;100.00;77074.25;5032612;28;19920;-69
2022/05/17 06:46:45;;;;;;;;;;;;;;;-142.75;100.00;77058.50;5032465;28;19925;-68
2022/05/17 06:49:11;;;;;;;;;;;;;;;-142.75;100.00;77054.56;5030786;28;19951;-67
2022/05/17 06:51:37;;;;;;;;;;;;;;;-142.75;100.00;77050.63;5032152;28;19913;-66
2022/05/17 06:54:02;;;;;;;;;;;;;;;-142.75;100.00;77050.63;5032135;28;19913;-68
2022/05/17 06:56:28;;;;;;;;;;;;;;;-142.75;100.00;77036.84;5032147;28;20011;-68
2022/05/17 06:58:53;;;;;;;;;;;;;;;-142.75;100.00;77027.00;5029605;28;19999;-68
2022/05/17 07:01:18;;;;;;;;;;;;;;;-142.75;100.00;77025.03;5031114;28;20279;-68
2022/05/17 07:03:43;;;;;;;;;;;;;;;-142.75;100.00;77015.19;5031320;28;19979;-68
2022/05/17 07:06:09;;;;;;;;;;;;;;;-142.75;100.00;77003.38;5029662;28;20434;-68
2022/05/17 07:08:34;;;;;;;;;;;;;;;-142.75;100.00;76993.53;5025797;28;19917;-68
2022/05/17 07:13:44;;;;;;;;;;;;;;;-142.75;100.00;76983.69;5031117;28;19919;-68
2022/05/17 07:16:09;;;;;;;;;;;;;;;-142.75;100.00;76991.56;5030872;28;19921;-68
2022/05/17 07:18:34;;;;;;;;;;;;;;;-142.75;100.00;76987.63;5030699;28;19916;-68
2022/05/17 07:21:00;;;;;;;;;;;;;;;-142.75;100.00;76983.69;5030934;28;19917;-68
2022/05/17 07:23:25;;;;;;;;;;;;;;;-142.75;100.00;76981.72;5030748;28;19923;-68
2022/05/17 07:25:51;;;;;;;;;;;;;;;-142.75;100.00;76977.78;5030702;28;19912;-69
2022/05/17 07:28:17;;;;;;;;;;;;;;;-142.75;100.00;76975.81;5030298;28;19968;-68
2022/05/17 07:30:43;;;;;;;;;;;;;;;-142.75;100.00;76975.81;5030669;28;19952;-68
2022/05/17 07:33:08;;;;;;;;;;;;;;;-142.75;100.00;76977.78;5030768;28;20436;-68
2022/05/17 07:35:34;;;;;;;;;;;;;;;-142.75;100.00;76975.81;5030735;28;20401;-67
2022/05/17 07:37:59;;;;;;;;;;;;;;;-142.75;100.00;76969.91;5030106;28;19912;-68
2022/05/17 07:40:24;;;;;;;;;;;;;;;-142.75;100.00;76975.81;5030684;28;19917;-68
2022/05/17 07:42:50;;;;;;;;;;;;;;;-142.75;100.00;76975.81;5030507;28;19944;-68
2022/05/17 07:45:15;;;;;;;;;;;;;;;-142.75;100.00;76964.00;5030595;28;20290;-69
2022/05/17 07:47:41;;;;;;;;;;;;;;;-142.75;100.00;76960.06;5030520;28;19970;-68
2022/05/17 07:50:06;;;;;;;;;;;;;;;-142.75;100.00;76956.13;5029919;28;19917;-69
2022/05/17 07:52:31;;;;;;;;;;;;;;;-142.75;100.00;76950.22;5030378;28;19912;-69
2022/05/17 07:54:57;;;;;;;;;;;;;;;-142.75;100.00;76940.38;5030366;28;19960;-71
2022/05/17 07:57:23;;;;;;;;;;;;;;;-142.75;100.00;76938.41;5028695;28;19913;-69
2022/05/17 07:59:48;;;;;;;;;;;;;;;-142.75;100.00;76920.69;5030126;28;19963;-69
2022/05/17 08:02:13;;;;;;;;;;;;;;;-142.75;100.00;76891.16;5030109;28;19960;-69
2022/05/17 08:04:38;;;;;;;;;;;;;;;-142.75;100.00;76857.69;5030368;28;20559;-69
2022/05/17 08:07:04;;;;;;;;;;;;;;;-142.75;100.00;76834.06;5030211;28;19920;-68
2022/05/17 08:09:29;;;;;;;;;;;;;;;-142.75;100.00;76806.50;5027996;28;20579;-68
2022/05/17 08:11:54;;;;;;;;;;;;;;;-142.75;100.00;76780.94;5029003;28;19944;-68
2022/05/17 08:14:20;;;;;;;;;;;;;;;-142.75;100.00;76767.16;5030166;28;19913;-70
2022/05/17 08:16:46;;;;;;;;;;;;;;;-142.75;100.00;76747.47;5030004;28;19944;-65
2022/05/17 08:19:11;;;;;;;;;;;;;;;-142.75;100.00;76747.47;5029755;28;19971;-68
2022/05/17 08:21:36;;;;;;;;;;;;;;;-142.75;100.00;76737.63;5029886;28;19974;-68
2022/05/17 08:24:02;;;;;;;;;;;;;;;-142.75;100.00;76735.66;5030052;28;19935;-68
2022/05/17 08:29:11;;;;;;;;;;;;;;;-142.75;100.00;76723.84;5029611;28;19972;-69
2022/05/17 08:31:36;;;;;;;;;;;;;;;-142.75;100.00;76714.00;5029988;28;19936;-68
2022/05/17 08:34:02;;;;;;;;;;;;;;;-142.75;100.00;76708.09;5029897;28;20359;-68
2022/05/17 08:36:27;;;;;;;;;;;;;;;-142.75;100.00;76706.13;5030351;28;19912;-69
2022/05/17 08:38:52;;;;;;;;;;;;;;;-142.75;100.00;76698.25;5030618;28;19917;-69
2022/05/17 08:41:29;;;;;;;;;;;;;;;-142.75;100.00;76698.25;5030694;28;20267;-69
2022/05/17 08:43:54;;;;;;;;;;;;;;;-142.75;100.00;76692.34;5030908;28;19948;-69
2022/05/17 08:46:38;;;;;;;;;;;;;;;-142.75;100.00;76688.41;5030728;28;19957;-69
2022/05/17 08:49:16;;;;;;;;;;;;;;;-142.75;100.00;76708.09;5029094;28;19913;-68
2022/05/17 08:51:43;;;;;;;;;;;;;;;-142.75;100.00;76727.78;5030790;28;19947;-68
2022/05/17 08:54:09;;;;;;;;;;;;;;;-142.75;100.00;76763.22;5030828;28;20302;-70
2022/05/17 08:56:37;;;;;;;;;;;;;;;-142.75;100.00;76755.34;5030801;28;19913;-69
2022/05/17 08:59:04;;;;;;;;;;;;;;;-142.75;100.00;76759.28;5030381;28;19924;-69
2022/05/17 09:01:36;;;;;;;;;;;;;;;-142.75;100.00;76751.41;5030633;28;19960;-69
2022/05/17 09:04:01;;;;;;;;;;;;;;;-142.75;100.00;76731.72;5030839;28;20000;-69
2022/05/17 09:06:35;;;;;;;;;;;;;;;-142.75;100.00;76721.88;5030702;28;19959;-69
2022/05/17 09:09:06;;;;;;;;;;;;;;;-142.75;100.00;76696.28;5030308;28;19913;-69
2022/05/17 09:11:43;;;;;;;;;;;;;;;-142.75;100.00;76688.41;5029042;28;20294;-70
2022/05/17 09:14:19;;;;;;;;;;;;;;;-142.75;100.00;76672.66;5030702;28;19920;-69
2022/05/17 09:16:46;;;;;;;;;;;;;;;-142.75;100.00;76623.44;5030511;28;19917;-69
2022/05/17 09:19:13;;;;;;;;;;;;;;;-142.75;100.00;76627.38;5030380;28;19958;-69
2022/05/17 09:21:40;;;;;;;;;;;;;;;-142.75;100.00;76629.34;5031659;28;20282;-69
2022/05/17 09:24:07;;;;;;;;;;;;;;;-142.75;100.00;76633.28;5033981;28;19921;-70
2022/05/17 09:26:33;;;;;;;;;;;;;;;-142.75;100.00;76625.41;5034018;28;19913;-70
2022/05/17 09:29:01;;;;;;;;;;;;;;;-142.75;100.00;76605.72;5033734;28;19920;-69
2022/05/17 09:31:31;;;;;;;;;;;;;;;-142.75;100.00;76546.66;5033846;28;19921;-69
2022/05/17 09:33:57;;;;;;;;;;;;;;;-142.75;100.00;76527.00;5033975;28;19913;-70
2022/05/17 09:36:31;;;;;;;;;;;;;;;-142.75;100.00;76517.16;5033790;28;19913;-69
2022/05/17 09:38:58;;;;;;;;;;;;;;;-142.75;100.00;76530.91;5033610;28;20444;-70
2022/05/17 09:41:25;;;;;;;;;;;;;;;-142.75;100.00;76525.03;5033678;28;20287;-69
2022/05/17 09:44:02;;;;;;;;;;;;;;;-142.75;100.00;76485.66;5033911;28;19923;-70
2022/05/17 09:46:32;;;;;;;;;;;;;;;-142.75;100.00;76458.09;5032365;28;19920;-69
2022/05/17 09:55:05;;;;;;;;;;;;;;;-142.75;100.00;76345.91;5033531;28;19920;-69
2022/05/17 09:57:30;;;;;;;;;;;;;;;-142.75;100.00;76314.41;5033746;28;19974;-69
2022/05/17 10:00:01;;;;;;;;;;;;;;;-142.75;100.00;76314.41;5033160;28;19913;-70
2022/05/17 10:02:28;;;;;;;;;;;;;;;-142.75;100.00;76320.31;5033594;28;19913;-69
2022/05/17 10:04:53;;;;;;;;;;;;;;;-142.75;100.00;76310.47;5033428;28;20298;-69
2022/05/17 10:07:18;;;;;;;;;;;;;;;-142.75;100.00;76290.78;5033439;28;19917;-69
2022/05/17 10:09:44;;;;;;;;;;;;;;;-142.75;100.00;76275.03;5032834;28;19920;-70
2022/05/17 10:12:20;;;;;;;;;;;;;;;-142.75;100.00;76231.72;5033496;28;19913;-70
2022/05/17 10:14:56;;;;;;;;;;;;;;;-142.75;100.00;76227.78;5033244;28;20294;-69
2022/05/17 10:17:27;;;;;;;;;;;;;;;-142.75;100.00;76217.94;5033070;28;19917;-69
2022/05/17 10:20:06;;;;;;;;;;;;;;;-142.75;100.00;76212.03;5032785;28;19913;-69
2022/05/17 10:22:35;;;;;;;;;;;;;;;-142.75;100.00;76214.00;5033064;28;20371;-69
2022/05/17 10:25:03;;;;;;;;;;;;;;;-142.75;100.00;76184.50;5032946;28;19917;-69
2022/05/17 10:27:44;;;;;;;;;;;;;;;-142.75;100.00;76145.13;5032929;28;19913;-69
2022/05/17 10:30:11;;;;;;;;;;;;;;;-142.75;100.00;76168.75;5032637;28;19917;-69
2022/05/17 10:32:44;;;;;;;;;;;;;;;-142.75;100.00;76176.63;5032641;28;19913;-69
2022/05/17 10:35:28;;;;;;;;;;;;;;;-142.75;100.00;76188.44;5032716;28;20330;-69
2022/05/17 10:37:57;;;;;;;;;;;;;;;-142.75;100.00;76196.31;5032446;28;19937;-69
2022/05/17 10:40:26;;;;;;;;;;;;;;;-142.75;100.00;76184.50;5032592;28;19920;-69
2022/05/17 10:42:52;;;;;;;;;;;;;;;-142.75;100.00;76196.31;5032585;28;19919;-69
2022/05/17 10:45:19;;;;;;;;;;;;;;;-142.75;100.00;76168.75;5032526;28;19913;-69
2022/05/17 10:47:50;;;;;;;;;;;;;;;-142.75;100.00;76121.50;5030920;28;19913;-69
2022/05/17 10:50:15;;;;;;;;;;;;;;;-142.75;100.00;76131.34;5032030;28;20394;-69
2022/05/17 10:53:14;;;;;;;;;;;;;;;-142.75;100.00;76164.81;5032479;28;19919;-69
2022/05/17 10:55:42;;;;;;;;;;;;;;;-142.75;100.00;76151.03;4999029;28;19948;-69
2022/05/17 10:58:30;;;;;;;;;;;;;;;-142.75;100.00;76117.56;5031992;28;19913;-68
2022/05/17 11:00:58;;;;;;;;;;;;;;;-142.75;100.00;76093.94;5025045;28;19943;-69
2022/05/17 11:03:35;;;;;;;;;;;;;;;-142.75;100.00;76093.94;5030816;28;19913;-69
2022/05/17 11:06:12;;;;;;;;;;;;;;;-142.75;100.00;76080.16;5031798;28;19920;-68
2022/05/17 11:08:56;;;;;;;;;;;;;;;-142.75;100.00;76121.50;5031639;28;20321;-69
2022/05/17 11:11:21;;;;;;;;;;;;;;;-142.75;100.00;76105.75;5030613;28;20450;-70
2022/05/17 11:13:53;;;;;;;;;;;;;;;-142.75;100.00;76093.94;5031986;28;20007;-70
2022/05/17 11:16:27;;;;;;;;;;;;;;;-142.75;100.00;76121.50;5031814;28;20412;-69
2022/05/17 11:19:00;;;;;;;;;;;;;;;-142.75;100.00;76164.81;5031026;28;19913;-69
2022/05/17 11:21:35;;;;;;;;;;;;;;;-142.75;100.00;76139.22;5031671;28;19924;-69
2022/05/17 11:24:19;;;;;;;;;;;;;;;-142.75;100.00;76143.16;5031615;28;19912;-70
2022/05/17 11:26:50;;;;;;;;;;;;;;;-142.75;100.00;76097.88;5031572;28;19974;-70
2022/05/17 11:29:34;;;;;;;;;;;;;;;-142.75;100.00;76056.56;5031244;28;19967;-70
2022/05/17 11:32:00;;;;;;;;;;;;;;;-142.75;100.00;76001.44;5031563;28;19920;-70
2022/05/17 11:34:35;;;;;;;;;;;;;;;-142.75;100.00;75977.81;5031434;28;20382;-70
2022/05/17 11:37:05;;;;;;;;;;;;;;;-142.75;100.00;75993.56;5031583;28;19913;-69
2022/05/17 11:39:30;;;;;;;;;;;;;;;-142.75;100.00;75995.53;5029732;28;19991;-69
2022/05/17 11:42:10;;;;;;;;;;;;;;;-142.75;100.00;75989.63;5031278;28;20414;-70
2022/05/17 11:44:43;;;;;;;;;;;;;;;-142.75;100.00;76019.16;5031035;28;19927;-70
2022/05/17 11:47:27;;;;;;;;;;;;;;;-142.75;100.00;76001.44;5031220;28;19913;-70
2022/05/17 11:49:52;;;;;;;;;;;;;;;-142.75;100.00;75985.69;5030693;28;20397;-70
2022/05/17 11:52:23;;;;;;;;;;;;;;;-142.75;100.00;75983.72;5031184;28;19913;-70
2022/05/17 11:54:49;;;;;;;;;;;;;;;-142.75;100.00;75979.78;5030011;28;19913;-70
2022/05/17 11:57:21;;;;;;;;;;;;;;;-142.75;100.00;75962.09;5031115;28;20055;-69
2022/05/17 11:59:56;;;;;;;;;;;;;;;-142.75;100.00;75942.41;5027398;28;19920;-70
2022/05/17 12:02:41;;;;;;;;;;;;;;;-142.75;100.00;75924.69;5026661;28;19913;-70
2022/05/17 12:05:09;;;;;;;;;;;;;;;-142.75;100.00;75910.91;5031051;28;20344;-70
2022/05/17 12:07:35;;;;;;;;;;;;;;;-142.75;100.00;75891.22;5031605;22;19968;-71
2022/05/17 12:10:14;;;;;;;;;;;;;;;-142.75;100.00;75881.38;5008568;28;20441;-71
2022/05/17 12:13:02;;;;;;;;;;;;;;;-142.75;100.00;75899.09;5015566;28;20455;-71
2022/05/17 12:15:34;;;;;;;;;;;;;;;-142.75;100.00;75875.47;5031165;28;19913;-71
2022/05/17 12:18:12;;;;;;;;;;;;;;;-142.75;100.00;75889.25;5029350;28;19913;-72
2022/05/17 12:20:44;;;;;;;;;;;;;;;-142.75;100.00;75885.31;5030904;28;19975;-71
2022/05/17 12:23:15;;;;;;;;;;;;;;;-142.75;100.00;75883.34;5031146;28;20042;-72
2022/05/17 12:25:44;;;;;;;;;;;;;;;-142.75;100.00;75867.59;5030567;28;20418;-70
2022/05/17 12:28:19;;;;;;;;;;;;;;;-142.75;100.00;75871.53;5029073;28;19924;-71
2022/05/17 12:30:53;;;;;;;;;;;;;;;-142.75;100.00;75844.00;5031148;28;19945;-71
2022/05/17 12:33:21;;;;;;;;;;;;;;;-142.75;100.00;75810.53;5031281;28;19963;-70
2022/05/17 12:35:47;;;;;;;;;;;;;;;-142.75;100.00;75847.94;5031098;28;20335;-72